Latest Weather Observations for Groote Eylandt Airport

IDD60801

Issued at 6:01 pm CST Sunday 7 February 2016 (issued every 30 minutes, with the page automatically refreshed every 10 minutes)

About weather observations | Map of weather stations | Latest weather observations for NT | Other Formats
Station Details ID: 014518 Name: GROOTE EYLANDT AIRPORT Lat: -13.97 Lon: 136.46 Height: 13.7 m
Data from the previous 72 hours. | See also: Recent months at Groote Eylandt Airport
Date/Time
CST
Temp
°C
App
Temp
°C
Dew
Point
Rel
Hum
%
Delta-T
°C
Wind Press
QNH
hPa
Press
MSL
hPa
Rain
since 9 am
mm
Dir
 
Spd
km/h
Gust
km/h
Spd
kts
Gust
kts
07/06:00pm 34.6 34.7 14.5 30 12.4 SSW 7 11 4 6 1005.4 1005.3 0.0
07/05:30pm 35.1 34.8 14.4 29 12.8 SSW 9 13 5 7 1005.1 1005.0 0.0
07/05:00pm 35.4 34.8 13.5 26 13.4 S 9 15 5 8 1004.9 1004.8 0.0
07/04:30pm 36.5 36.6 14.5 27 13.7 SW 7 13 4 7 1004.8 1004.7 0.0
07/04:00pm 35.6 34.7 13.7 27 13.4 W 11 15 6 8 1004.9 1004.8 0.0
07/03:30pm 36.2 35.5 14.2 26 13.6 W 11 17 6 9 1005.0 1004.9 0.0
07/03:00pm 35.7 35.0 13.2 26 13.7 WSW 9 17 5 9 1005.1 1005.0 0.0
07/02:30pm 35.9 34.7 12.8 25 14.0 W 11 17 6 9 1005.3 1005.2 0.0
07/02:00pm 36.1 35.9 14.7 28 13.3 NW 9 17 5 9 1005.7 1005.6 0.0
07/01:30pm 35.3 34.9 15.1 30 12.6 W 11 17 6 9 1006.1 1006.0 0.0
07/01:00pm 34.3 33.9 17.1 36 11.0 W 15 20 8 11 1006.4 1006.3 0.0
07/12:30pm 34.0 34.7 18.9 41 9.9 W 13 20 7 11 1006.7 1006.6 0.0
07/12:00pm 34.1 35.6 21.2 47 8.7 W 15 22 8 12 1006.9 1006.8 0.0
07/11:30am 33.0 36.5 23.6 57 6.5 WSW 11 17 6 9 1007.2 1007.1 0.0
07/11:00am 32.8 36.5 24.6 62 5.8 W 13 19 7 10 1007.4 1007.3 0.0
07/10:30am 32.6 36.2 24.4 62 5.8 WNW 13 20 7 11 1007.5 1007.4 0.0
07/10:00am 32.3 36.2 24.9 65 5.2 NW 13 20 7 11 1007.7 1007.6 0.0
07/09:30am 32.0 36.7 25.6 69 4.6 NW 11 13 6 7 1007.6 1007.5 0.0
07/09:00am 31.5 36.2 26.1 73 3.9 NNW 13 19 7 10 1007.6 1007.5 0.0
07/08:30am 30.5 37.0 26.2 78 3.1 NNW 4 15 2 8 1007.5 1007.4 0.0
07/08:00am 29.1 35.6 25.7 82 2.4 ENE 2 6 1 3 1007.3 1007.2 0.0
07/07:30am 26.5 32.1 23.6 84 2.0 CALM 0 0 0 0 1007.2 1007.1 0.0
07/07:00am 23.9 28.2 21.2 85 1.8 CALM 0 6 0 3 1006.9 1006.8 0.0
07/06:30am 23.1 26.9 20.2 84 1.9 CALM 0 0 0 0 1006.7 1006.6 0.0
07/06:00am 23.0 26.3 20.0 83 1.9 E 2 6 1 3 1006.6 1006.5 0.0
07/05:30am 23.5 27.4 20.4 83 2.0 CALM 0 7 0 4 1006.4 1006.3 0.0
07/05:00am 23.5 27.3 20.2 82 2.1 CALM 0 0 0 0 1006.2 1006.1 0.0
07/04:30am 23.6 27.4 20.1 81 2.3 CALM 0 0 0 0 1006.1 1006.0 0.0
07/04:00am 23.6 27.4 20.1 81 2.3 CALM 0 0 0 0 1006.0 1005.9 0.0
07/03:30am 23.7 27.4 20.0 80 2.4 CALM 0 0 0 0 1005.9 1005.8 0.0
07/03:00am 23.4 27.0 19.8 80 2.3 CALM 0 0 0 0 1005.9 1005.8 0.0
07/02:30am 23.3 26.8 19.5 79 2.4 CALM 0 0 0 0 1006.0 1005.9 0.0
07/02:00am 23.5 27.0 19.6 79 2.5 CALM 0 0 0 0 1006.1 1006.0 0.0
07/01:30am 23.8 27.4 19.7 78 2.6 CALM 0 0 0 0 1006.4 1006.3 0.0
07/01:00am 23.8 27.3 19.5 77 2.8 CALM 0 0 0 0 1006.5 1006.4 0.0
07/12:30am 23.7 27.0 19.2 76 2.9 CALM 0 0 0 0 1006.8 1006.7 0.0
07/12:00am 23.7 26.9 18.8 74 3.1 CALM 0 0 0 0 1006.8 1006.7 0.0
 
Date/Time
CST
Temp
°C
App
Temp
°C
Dew
Point
Rel
Hum
%
Delta-T
°C
Wind Press
QNH
hPa
Press
MSL
hPa
Rain
since 9 am
mm
Dir
 
Spd
km/h
Gust
km/h
Spd
kts
Gust
kts
06/11:30pm 23.5 25.3 18.4 73 3.2 NE 6 7 3 4 1006.8 1006.7 0.0
06/11:00pm 24.7 27.4 18.6 69 3.9 ENE 2 6 1 3 1006.9 1006.8 0.0
06/10:30pm 24.0 26.8 18.0 69 3.8 CALM 0 0 0 0 1006.7 1006.6 0.0
06/10:00pm 24.7 26.9 18.4 68 4.0 ENE 4 6 2 3 1006.7 1006.6 0.0
06/09:30pm 24.3 25.7 17.3 65 4.4 ESE 6 9 3 5 1006.5 1006.4 0.0
06/09:00pm 24.7 25.9 16.9 62 4.8 ENE 6 7 3 4 1006.2 1006.1 0.0
06/08:30pm 25.3 27.0 16.2 57 5.6 E 2 7 1 4 1006.2 1006.1 0.0
06/08:00pm 25.9 26.5 15.9 54 6.1 ESE 7 9 4 5 1005.9 1005.8 0.0
06/07:30pm 27.2 27.8 15.9 50 7.0 ESE 7 9 4 5 1005.7 1005.6 0.0
06/07:00pm 28.2 28.6 14.8 44 8.1 SE 6 7 3 4 1005.6 1005.5 0.0
06/06:30pm 31.1 31.2 13.8 34 10.5 SSE 6 7 3 4 1005.2 1005.1 0.0
06/06:00pm 33.4 33.2 13.5 30 12.1 SSE 7 11 4 6 1004.9 1004.8 0.0
06/05:30pm 33.9 33.8 13.9 30 12.2 S 7 13 4 7 1004.7 1004.6 0.0
06/05:00pm 34.3 34.1 14.7 30 12.1 SSW 9 15 5 8 1004.4 1004.3 0.0
06/04:30pm 34.2 33.6 14.7 31 12.1 SW 11 19 6 10 1004.3 1004.2 0.0
06/04:00pm 34.6 34.3 15.5 32 12.0 SW 11 20 6 11 1004.5 1004.4 0.0
06/03:30pm 34.2 33.6 15.6 32 11.7 S 13 20 7 11 1004.7 1004.6 0.0
06/03:00pm 34.2 34.1 17.0 36 11.0 SW 13 22 7 12 1004.9 1004.8 0.0
06/02:30pm 34.1 34.4 17.8 38 10.6 WSW 13 20 7 11 1005.2 1005.1 0.0
06/02:00pm 33.7 34.8 19.7 43 9.3 SW 13 20 7 11 1005.5 1005.4 0.0
06/01:30pm 33.6 35.0 20.4 46 8.8 SW 13 20 7 11 1005.7 1005.6 0.0
06/01:00pm 33.2 35.5 22.0 51 7.6 SSW 13 19 7 10 1006.0 1005.9 0.0
06/12:30pm 32.5 35.5 24.0 61 5.9 SW 15 22 8 12 1006.3 1006.2 0.0
06/12:00pm 32.0 35.7 24.6 65 5.2 SSW 13 26 7 14 1006.6 1006.5 0.0
06/11:30am 31.9 36.2 25.5 69 4.6 SW 13 20 7 11 1006.7 1006.6 0.0
06/11:00am 31.4 37.0 25.7 71 4.1 WSW 7 15 4 8 1006.8 1006.7 0.0
06/10:30am 31.0 35.9 25.8 74 3.7 WSW 11 19 6 10 1006.9 1006.8 0.0
06/10:00am 30.6 35.2 25.9 76 3.3 W 13 19 7 10 1006.9 1006.8 0.0
06/09:30am 30.6 36.3 26.5 79 2.9 WSW 9 15 5 8 1006.9 1006.8 0.0
06/09:00am 30.0 35.3 26.4 81 2.6 W 11 15 6 8 1006.9 1006.8 0.0
06/08:30am 29.5 34.7 26.3 83 2.3 W 11 17 6 9 1006.6 1006.5 0.0
06/08:00am 28.4 34.4 26.0 87 1.7 NW 6 7 3 4 1006.5 1006.4 0.0
06/07:30am 26.4 32.5 24.4 89 1.4 CALM 0 0 0 0 1006.1 1006.0 0.0
06/07:00am 24.6 29.7 22.7 89 1.3 CALM 0 0 0 0 1005.9 1005.8 0.0
06/06:30am 24.0 28.8 22.1 89 1.3 CALM 0 0 0 0 1005.7 1005.6 0.0
06/06:00am 24.2 29.0 22.1 88 1.4 CALM 0 0 0 0 1005.5 1005.4 0.0
06/05:30am 24.3 29.1 22.2 88 1.4 CALM 0 2 0 1 1005.5 1005.4 0.0
06/05:00am 24.4 28.1 22.3 88 1.4 SE 6 6 3 3 1005.4 1005.3 0.0
06/04:30am 24.7 29.6 22.4 87 1.5 CALM 0 0 0 0 1005.2 1005.1 0.0
06/04:00am 24.6 29.5 22.3 87 1.5 CALM 0 0 0 0 1005.0 1004.9 0.0
06/03:30am 24.6 29.4 22.1 86 1.7 CALM 0 0 0 0 1005.1 1005.0 0.0
06/03:00am 24.4 29.1 21.9 86 1.7 CALM 0 0 0 0 1005.0 1004.9 0.0
06/02:30am 24.4 29.1 21.9 86 1.7 CALM 0 0 0 0 1005.0 1004.9 0.0
06/02:00am 24.3 28.8 21.6 85 1.8 CALM 0 0 0 0 1005.0 1004.9 0.0
06/01:30am 24.1 28.5 21.4 85 1.8 CALM 0 6 0 3 1005.0 1004.9 0.0
06/01:00am 24.1 27.4 21.4 85 1.8 ESE 6 7 3 4 1005.2 1005.1 0.0
06/12:30am 24.0 27.1 21.1 84 1.9 ESE 6 7 3 4 1005.5 1005.4 0.0
06/12:00am 24.1 27.2 21.0 83 2.0 ESE 6 7 3 4 1005.9 1005.8 0.0
 
Date/Time
CST
Temp
°C
App
Temp
°C
Dew
Point
Rel
Hum
%
Delta-T
°C
Wind Press
QNH
hPa
Press
MSL
hPa
Rain
since 9 am
mm
Dir
 
Spd
km/h
Gust
km/h
Spd
kts
Gust
kts
05/11:30pm 24.2 27.2 20.9 82 2.2 E 6 7 3 4 1006.4 1006.3 0.0
05/11:00pm 24.5 28.1 21.2 82 2.2 E 4 7 2 4 1006.5 1006.4 0.0
05/10:30pm 24.5 28.2 20.8 80 2.4 E 2 6 1 3 1006.5 1006.4 0.0
05/10:00pm 25.0 29.3 21.1 79 2.6 CALM 0 0 0 0 1006.4 1006.3 0.0
05/09:30pm 25.2 29.0 20.9 77 2.8 ESE 2 6 1 3 1006.3 1006.2 0.0
05/09:00pm 25.5 28.4 20.7 75 3.2 ESE 6 7 3 4 1006.2 1006.1 0.0
05/08:30pm 26.9 31.3 21.4 72 3.7 CALM 0 0 0 0 1006.0 1005.9 0.0
05/08:00pm 27.9 32.3 21.4 67 4.3 CALM 0 0 0 0 1005.7 1005.6 0.0
05/07:30pm 27.9 31.7 20.2 63 5.1 CALM 0 0 0 0 1005.5 1005.4 0.0
05/07:00pm 28.8 32.5 20.0 59 5.8 CALM 0 0 0 0 1005.1 1005.0 0.0
05/06:30pm 30.6 33.4 19.6 51 7.2 SSW 4 7 2 4 1004.9 1004.8 0.0
05/06:00pm 31.2 33.5 19.9 51 7.5 S 7 11 4 6 1004.6 1004.5 0.0
05/05:30pm 31.1 32.8 19.4 49 7.7 SSE 9 15 5 8 1004.2 1004.1 0.0
05/05:00pm 31.7 33.6 19.7 49 7.9 SSE 9 13 5 7 1004.2 1004.1 0.0
05/04:30pm 31.7 33.7 20.0 50 7.8 S 9 15 5 8 1004.3 1004.2 0.0
05/04:00pm 32.2 34.4 20.5 50 7.8 SSE 9 17 5 9 1004.3 1004.2 0.0
05/03:30pm 32.1 33.9 20.4 50 7.8 S 11 17 6 9 1004.5 1004.4 0.0
05/03:00pm 31.9 33.2 20.2 50 7.8 S 13 20 7 11 1004.5 1004.4 0.0
05/02:30pm 32.2 33.7 20.5 50 7.8 S 13 19 7 10 1004.3 1004.2 0.0
05/02:00pm 32.8 34.0 20.7 49 8.1 S 15 28 8 15 1004.5 1004.4 0.0
05/01:30pm 32.8 34.3 21.3 50 7.8 SSW 15 26 8 14 1004.7 1004.6 0.0
05/01:00pm 32.6 34.9 22.1 54 7.2 SSW 13 26 7 14 1004.8 1004.7 0.0
05/12:30pm 32.5 34.9 22.9 57 6.6 SSW 15 26 8 14 1004.9 1004.8 0.0
05/12:00pm 32.3 35.4 23.5 59 6.1 S 13 30 7 16 1005.2 1005.1 0.0
05/11:30am 31.7 35.1 24.0 63 5.4 S 13 22 7 12 1005.5 1005.4 0.0
05/11:00am 31.3 34.3 24.7 68 4.6 S 17 28 9 15 1005.9 1005.8 0.0
05/10:30am 31.2 34.7 25.5 71 4.0 SSW 17 35 9 19 1006.1 1006.0 0.0
05/10:00am 30.8 35.8 26.5 78 3.1 S 13 20 7 11 1006.3 1006.2 0.0
05/09:30am 30.2 35.7 26.8 82 2.4 S 11 19 6 10 1006.5 1006.4 0.0
05/09:00am 29.5 35.4 26.7 85 2.0 SSW 9 20 5 11 1006.4 1006.3 4.2
05/08:30am 28.7 34.8 26.5 88 1.6 SSW 7 15 4 8 1006.4 1006.3 4.2
05/08:00am 26.7 33.1 24.9 90 1.3 CALM 0 0 0 0 1006.3 1006.2 4.2
05/07:30am 25.7 30.2 23.7 89 1.4 SE 6 7 3 4 1006.3 1006.2 4.0
05/07:14am 25.8 31.5 23.8 89 1.4 CALM 0 0 0 0 1006.3 1006.2 4.0
05/07:00am 25.9 30.4 23.9 89 1.4 E 7 11 4 6 1006.4 1006.3 4.0
05/06:30am 26.4 31.3 24.4 89 1.4 WSW 6 15 3 8 1006.2 1006.1 4.0
05/06:19am 27.7 32.9 25.7 89 1.4 ENE 9 17 5 9 1006.1 1006.0 4.0
05/06:00am 28.0 33.8 26.0 89 1.4 SW 7 11 4 6 1006.0 1005.9 2.6
05/05:30am 28.4 33.7 26.4 89 1.4 WNW 11 13 6 7 1005.9 1005.8 2.4
05/05:00am 28.4 34.1 26.4 89 1.4 WNW 9 15 5 8 1005.8 1005.7 2.4
05/04:30am 27.2 33.5 25.4 90 1.3 NNW 2 9 1 5 1005.7 1005.6 2.4
05/04:00am 27.0 33.5 25.0 89 1.4 CALM 0 0 0 0 1005.7 1005.6 2.4
05/03:30am 26.7 33.0 24.7 89 1.4 CALM 0 0 0 0 1005.8 1005.7 2.4
05/03:00am 26.7 33.0 24.7 89 1.4 CALM 0 0 0 0 1006.0 1005.9 2.4
05/02:30am 26.8 33.1 24.8 89 1.4 CALM 0 0 0 0 1006.0 1005.9 2.4
05/02:00am 26.6 32.7 24.4 88 1.5 CALM 0 0 0 0 1006.0 1005.9 2.4
05/01:30am 26.5 32.5 24.3 88 1.5 CALM 0 0 0 0 1005.9 1005.8 2.4
05/01:00am 26.4 32.4 24.2 88 1.5 CALM 0 0 0 0 1006.1 1006.0 2.4
05/12:30am 27.1 32.2 24.7 87 1.7 ESE 6 7 3 4 1006.3 1006.2 2.4
05/12:00am 26.9 33.0 24.4 86 1.7 CALM 0 0 0 0 1006.6 1006.5 2.4
 
Date/Time
CST
Temp
°C
App
Temp
°C
Dew
Point
Rel
Hum
%
Delta-T
°C
Wind Press
QNH
hPa
Press
MSL
hPa
Rain
since 9 am
mm
Dir
 
Spd
km/h
Gust
km/h
Spd
kts
Gust
kts
04/11:30pm 26.7 31.5 24.2 86 1.7 SE 6 7 3 4 1006.8 1006.7 2.4
04/11:00pm 27.1 33.2 24.4 85 1.9 CALM 0 0 0 0 1007.1 1007.0 2.4
04/10:30pm 27.2 33.2 24.3 84 2.0 CALM 0 0 0 0 1007.4 1007.3 2.4
04/10:00pm 27.2 33.2 24.3 84 2.0 CALM 0 0 0 0 1007.0 1006.9 2.4
04/09:30pm 27.4 33.4 24.3 83 2.2 CALM 0 0 0 0 1007.0 1006.9 2.4
04/09:00pm 27.6 32.4 24.2 82 2.4 ESE 6 9 3 5 1007.1 1007.0 2.4
04/08:30pm 27.7 32.3 24.1 81 2.5 E 7 9 4 5 1006.8 1006.7 2.4
04/08:00pm 28.1 33.7 24.3 80 2.6 ESE 2 6 1 3 1006.6 1006.5 2.4
04/07:30pm 28.1 32.9 24.1 79 2.8 SE 6 9 3 5 1005.7 1005.6 2.4
04/07:00pm 28.4 32.7 24.2 78 2.9 SSE 9 13 5 7 1005.1 1005.0 2.4
04/06:30pm 29.4 34.5 24.9 77 3.2 S 7 9 4 5 1004.9 1004.8 2.4

Other Formats:

Comma delimited format used in spreadsheet applications
http://www.bom.gov.au/fwo/IDD60801/IDD60801.94153.axf

JavaScript Object Notation format (JSON) in row-major order
http://www.bom.gov.au/fwo/IDD60801/IDD60801.94153.json